Terminal Aerodrome Forecast
Issued by NWS Corpus Christi, TX

Home | Current Version | Previous Version | Text Only | Print | Product List | Glossary On
Versions: 1 2 3 4 5 6 7 8 9 10 11 12 13 14
000
FTUS44 KCRP 012300
TAFCRP
TAF
KCRP 012340Z 0200/0224 14014G20KT P6SM SCT030 BKN150
     FM020400 15010KT P6SM SCT020
     FM020800 14005KT P6SM BKN012
     FM021400 15010G18KT P6SM VCSH BKN025
     FM021700 13012G20KT P6SM VCTS BKN030CB
      TEMPO 0218/0222 1SM TSRA OVC025CB=

USA.gov is the U.S. government's official web portal to all federal, state and local government web resources and services.